sensor_id;sensor_type;location;lat;lon;timestamp;temperature;humidity
37410;DHT22;23275;48.914;12.566;2023-09-12T00:00:42;16.70;99.90
37410;DHT22;23275;48.914;12.566;2023-09-12T00:03:08;16.70;99.90
37410;DHT22;23275;48.914;12.566;2023-09-12T00:05:34;16.70;99.90
37410;DHT22;23275;48.914;12.566;2023-09-12T00:08:00;16.70;99.90
37410;DHT22;23275;48.914;12.566;2023-09-12T00:10:25;16.60;99.90
37410;DHT22;23275;48.914;12.566;2023-09-12T00:12:51;16.70;99.90
37410;DHT22;23275;48.914;12.566;2023-09-12T00:15:16;16.70;99.90
37410;DHT22;23275;48.914;12.566;2023-09-12T00:17:43;16.70;99.90
37410;DHT22;23275;48.914;12.566;2023-09-12T00:20:09;16.80;99.90
37410;DHT22;23275;48.914;12.566;2023-09-12T00:22:35;16.80;99.90
37410;DHT22;23275;48.914;12.566;2023-09-12T00:25:00;16.80;99.90
37410;DHT22;23275;48.914;12.566;2023-09-12T00:27:26;16.80;99.90
37410;DHT22;23275;48.914;12.566;2023-09-12T00:29:51;16.80;99.90
37410;DHT22;23275;48.914;12.566;2023-09-12T00:32:17;16.70;99.90
37410;DHT22;23275;48.914;12.566;2023-09-12T00:34:42;16.70;99.90
37410;DHT22;23275;48.914;12.566;2023-09-12T00:37:08;16.70;99.90
37410;DHT22;23275;48.914;12.566;2023-09-12T00:39:33;16.70;99.90
37410;DHT22;23275;48.914;12.566;2023-09-12T00:41:59;16.70;99.90
37410;DHT22;23275;48.914;12.566;2023-09-12T00:44:24;16.70;99.90
37410;DHT22;23275;48.914;12.566;2023-09-12T00:46:51;16.70;99.90
37410;DHT22;23275;48.914;12.566;2023-09-12T00:49:18;16.60;99.90
37410;DHT22;23275;48.914;12.566;2023-09-12T00:51:47;16.70;99.90
37410;DHT22;23275;48.914;12.566;2023-09-12T00:54:14;16.60;99.90
37410;DHT22;23275;48.914;12.566;2023-09-12T00:56:40;16.60;99.90
37410;DHT22;23275;48.914;12.566;2023-09-12T00:59:05;16.70;99.90
37410;DHT22;23275;48.914;12.566;2023-09-12T01:01:32;16.60;99.90
37410;DHT22;23275;48.914;12.566;2023-09-12T01:03:58;16.60;99.90
37410;DHT22;23275;48.914;12.566;2023-09-12T01:06:24;16.60;99.90
37410;DHT22;23275;48.914;12.566;2023-09-12T01:08:52;16.60;99.90
37410;DHT22;23275;48.914;12.566;2023-09-12T01:11:18;16.60;99.90
37410;DHT22;23275;48.914;12.566;2023-09-12T01:13:45;16.60;99.90
37410;DHT22;23275;48.914;12.566;2023-09-12T01:16:11;16.50;99.90
37410;DHT22;23275;48.914;12.566;2023-09-12T01:18:36;16.60;99.90
37410;DHT22;23275;48.914;12.566;2023-09-12T01:24:01;16.60;99.90
37410;DHT22;23275;48.914;12.566;2023-09-12T01:29:12;16.50;99.90
37410;DHT22;23275;48.914;12.566;2023-09-12T01:31:39;16.50;99.90
37410;DHT22;23275;48.914;12.566;2023-09-12T01:34:10;16.50;99.90
37410;DHT22;23275;48.914;12.566;2023-09-12T01:36:36;16.40;99.90
37410;DHT22;23275;48.914;12.566;2023-09-12T01:39:01;16.40;99.90
37410;DHT22;23275;48.914;12.566;2023-09-12T01:41:29;16.40;99.90
37410;DHT22;23275;48.914;12.566;2023-09-12T01:43:56;16.40;99.90
37410;DHT22;23275;48.914;12.566;2023-09-12T01:46:22;16.30;99.90
37410;DHT22;23275;48.914;12.566;2023-09-12T01:48:49;16.30;99.90
37410;DHT22;23275;48.914;12.566;2023-09-12T01:51:18;16.20;99.90
37410;DHT22;23275;48.914;12.566;2023-09-12T01:53:45;16.20;99.90
37410;DHT22;23275;48.914;12.566;2023-09-12T01:56:12;16.10;99.90
37410;DHT22;23275;48.914;12.566;2023-09-12T01:58:38;16.10;99.90
37410;DHT22;23275;48.914;12.566;2023-09-12T02:01:05;16.00;99.90
37410;DHT22;23275;48.914;12.566;2023-09-12T02:03:30;16.00;99.90
37410;DHT22;23275;48.914;12.566;2023-09-12T02:05:56;16.00;99.90
37410;DHT22;23275;48.914;12.566;2023-09-12T02:08:21;16.00;99.90
37410;DHT22;23275;48.914;12.566;2023-09-12T02:10:47;16.00;99.90
37410;DHT22;23275;48.914;12.566;2023-09-12T02:13:12;16.00;99.90
37410;DHT22;23275;48.914;12.566;2023-09-12T02:15:38;16.00;99.90
37410;DHT22;23275;48.914;12.566;2023-09-12T02:18:04;16.00;99.90
37410;DHT22;23275;48.914;12.566;2023-09-12T02:20:30;15.90;99.90
37410;DHT22;23275;48.914;12.566;2023-09-12T02:22:56;16.00;99.90
37410;DHT22;23275;48.914;12.566;2023-09-12T02:25:21;16.00;99.90
37410;DHT22;23275;48.914;12.566;2023-09-12T02:27:47;15.90;99.90
37410;DHT22;23275;48.914;12.566;2023-09-12T02:30:13;15.90;99.90
37410;DHT22;23275;48.914;12.566;2023-09-12T02:32:38;15.90;99.90
37410;DHT22;23275;48.914;12.566;2023-09-12T02:35:04;15.90;99.90
37410;DHT22;23275;48.914;12.566;2023-09-12T02:37:29;15.90;99.90
37410;DHT22;23275;48.914;12.566;2023-09-12T02:39:55;15.90;99.90
37410;DHT22;23275;48.914;12.566;2023-09-12T02:42:21;15.80;99.90
37410;DHT22;23275;48.914;12.566;2023-09-12T02:44:46;15.80;99.90
37410;DHT22;23275;48.914;12.566;2023-09-12T02:47:13;15.80;99.90
37410;DHT22;23275;48.914;12.566;2023-09-12T02:49:38;15.70;99.90
37410;DHT22;23275;48.914;12.566;2023-09-12T02:52:04;15.70;99.90
37410;DHT22;23275;48.914;12.566;2023-09-12T02:54:29;15.60;99.90
37410;DHT22;23275;48.914;12.566;2023-09-12T02:56:55;15.50;99.90
37410;DHT22;23275;48.914;12.566;2023-09-12T02:59:20;15.50;99.90
37410;DHT22;23275;48.914;12.566;2023-09-12T03:01:46;15.40;99.90
37410;DHT22;23275;48.914;12.566;2023-09-12T03:04:11;15.40;99.90
37410;DHT22;23275;48.914;12.566;2023-09-12T03:06:37;15.30;99.90
37410;DHT22;23275;48.914;12.566;2023-09-12T03:09:02;15.30;99.90
37410;DHT22;23275;48.914;12.566;2023-09-12T03:11:28;15.30;99.90
37410;DHT22;23275;48.914;12.566;2023-09-12T03:13:55;15.30;99.90
37410;DHT22;23275;48.914;12.566;2023-09-12T03:16:20;15.20;99.90
37410;DHT22;23275;48.914;12.566;2023-09-12T03:18:46;15.30;99.90
37410;DHT22;23275;48.914;12.566;2023-09-12T03:21:12;15.30;99.90
37410;DHT22;23275;48.914;12.566;2023-09-12T03:23:37;15.20;99.90
37410;DHT22;23275;48.914;12.566;2023-09-12T03:26:04;15.20;99.90
37410;DHT22;23275;48.914;12.566;2023-09-12T03:28:30;15.20;99.90
37410;DHT22;23275;48.914;12.566;2023-09-12T03:31:11;15.20;99.90
37410;DHT22;23275;48.914;12.566;2023-09-12T03:33:38;15.20;99.90
37410;DHT22;23275;48.914;12.566;2023-09-12T03:36:04;15.20;99.90
37410;DHT22;23275;48.914;12.566;2023-09-12T03:38:30;15.20;99.90
37410;DHT22;23275;48.914;12.566;2023-09-12T03:40:55;15.20;99.90
37410;DHT22;23275;48.914;12.566;2023-09-12T03:43:21;15.20;99.90
37410;DHT22;23275;48.914;12.566;2023-09-12T03:45:46;15.10;99.90
37410;DHT22;23275;48.914;12.566;2023-09-12T03:48:12;15.10;99.90
37410;DHT22;23275;48.914;12.566;2023-09-12T03:50:37;15.20;99.90
37410;DHT22;23275;48.914;12.566;2023-09-12T03:53:03;15.20;99.90
37410;DHT22;23275;48.914;12.566;2023-09-12T03:55:29;15.20;99.90
37410;DHT22;23275;48.914;12.566;2023-09-12T03:57:54;15.20;99.90
37410;DHT22;23275;48.914;12.566;2023-09-12T04:00:20;15.20;99.90
37410;DHT22;23275;48.914;12.566;2023-09-12T04:02:45;15.20;99.90
37410;DHT22;23275;48.914;12.566;2023-09-12T04:05:11;15.20;99.90
37410;DHT22;23275;48.914;12.566;2023-09-12T04:07:36;15.20;99.90
37410;DHT22;23275;48.914;12.566;2023-09-12T04:10:02;15.20;99.90
37410;DHT22;23275;48.914;12.566;2023-09-12T04:12:27;15.10;99.90
37410;DHT22;23275;48.914;12.566;2023-09-12T04:14:53;15.10;99.90
37410;DHT22;23275;48.914;12.566;2023-09-12T04:17:20;15.00;99.90
37410;DHT22;23275;48.914;12.566;2023-09-12T04:19:46;15.00;99.90
37410;DHT22;23275;48.914;12.566;2023-09-12T04:22:11;15.00;99.90
37410;DHT22;23275;48.914;12.566;2023-09-12T04:24:37;14.90;99.90
37410;DHT22;23275;48.914;12.566;2023-09-12T04:27:02;14.90;99.90
37410;DHT22;23275;48.914;12.566;2023-09-12T04:29:28;14.90;99.90
37410;DHT22;23275;48.914;12.566;2023-09-12T04:31:54;14.90;99.90
37410;DHT22;23275;48.914;12.566;2023-09-12T04:34:25;14.90;99.90
37410;DHT22;23275;48.914;12.566;2023-09-12T04:36:51;14.80;99.90
37410;DHT22;23275;48.914;12.566;2023-09-12T04:39:17;14.80;99.90
37410;DHT22;23275;48.914;12.566;2023-09-12T04:41:43;14.80;99.90
37410;DHT22;23275;48.914;12.566;2023-09-12T04:44:08;14.80;99.90
37410;DHT22;23275;48.914;12.566;2023-09-12T04:46:34;14.80;99.90
37410;DHT22;23275;48.914;12.566;2023-09-12T04:48:59;14.80;99.90
37410;DHT22;23275;48.914;12.566;2023-09-12T04:51:25;14.80;99.90
37410;DHT22;23275;48.914;12.566;2023-09-12T04:53:52;14.80;99.90
37410;DHT22;23275;48.914;12.566;2023-09-12T04:56:18;14.70;99.90
37410;DHT22;23275;48.914;12.566;2023-09-12T04:58:44;14.70;99.90
37410;DHT22;23275;48.914;12.566;2023-09-12T05:01:09;14.70;99.90
37410;DHT22;23275;48.914;12.566;2023-09-12T05:03:35;14.70;99.90
37410;DHT22;23275;48.914;12.566;2023-09-12T05:06:01;14.70;99.90
37410;DHT22;23275;48.914;12.566;2023-09-12T05:08:27;14.70;99.90
37410;DHT22;23275;48.914;12.566;2023-09-12T05:10:52;14.80;99.90
37410;DHT22;23275;48.914;12.566;2023-09-12T05:13:18;14.90;99.90
37410;DHT22;23275;48.914;12.566;2023-09-12T05:15:44;14.90;99.90
37410;DHT22;23275;48.914;12.566;2023-09-12T05:18:09;14.90;99.90
37410;DHT22;23275;48.914;12.566;2023-09-12T05:20:36;14.90;99.90
37410;DHT22;23275;48.914;12.566;2023-09-12T05:23:01;15.00;99.90
37410;DHT22;23275;48.914;12.566;2023-09-12T05:25:27;15.10;99.90
37410;DHT22;23275;48.914;12.566;2023-09-12T05:27:53;15.20;99.90
37410;DHT22;23275;48.914;12.566;2023-09-12T05:30:18;15.20;99.90
37410;DHT22;23275;48.914;12.566;2023-09-12T05:32:44;15.30;99.90
37410;DHT22;23275;48.914;12.566;2023-09-12T05:35:10;15.30;99.90
37410;DHT22;23275;48.914;12.566;2023-09-12T05:37:35;15.40;99.90
37410;DHT22;23275;48.914;12.566;2023-09-12T05:40:01;15.50;99.90
37410;DHT22;23275;48.914;12.566;2023-09-12T05:42:27;15.70;99.90
37410;DHT22;23275;48.914;12.566;2023-09-12T05:44:52;16.00;99.90
37410;DHT22;23275;48.914;12.566;2023-09-12T05:47:22;16.00;99.90
37410;DHT22;23275;48.914;12.566;2023-09-12T05:49:47;16.00;99.90
37410;DHT22;23275;48.914;12.566;2023-09-12T05:52:13;16.10;99.90
37410;DHT22;23275;48.914;12.566;2023-09-12T05:54:39;16.30;99.90
37410;DHT22;23275;48.914;12.566;2023-09-12T05:57:06;16.40;99.90
37410;DHT22;23275;48.914;12.566;2023-09-12T05:59:32;16.50;99.90
37410;DHT22;23275;48.914;12.566;2023-09-12T06:01:58;16.80;99.90
37410;DHT22;23275;48.914;12.566;2023-09-12T06:04:24;17.00;99.90
37410;DHT22;23275;48.914;12.566;2023-09-12T06:06:49;17.00;99.90
37410;DHT22;23275;48.914;12.566;2023-09-12T06:09:15;17.10;99.90
37410;DHT22;23275;48.914;12.566;2023-09-12T06:11:40;17.20;99.90
37410;DHT22;23275;48.914;12.566;2023-09-12T06:14:06;17.30;99.90
37410;DHT22;23275;48.914;12.566;2023-09-12T06:16:31;17.40;99.90
37410;DHT22;23275;48.914;12.566;2023-09-12T06:18:57;17.60;99.90
37410;DHT22;23275;48.914;12.566;2023-09-12T06:21:22;17.70;99.90
37410;DHT22;23275;48.914;12.566;2023-09-12T06:24:00;17.70;99.90
37410;DHT22;23275;48.914;12.566;2023-09-12T06:26:32;17.80;99.90
37410;DHT22;23275;48.914;12.566;2023-09-12T06:28:59;17.90;99.90
37410;DHT22;23275;48.914;12.566;2023-09-12T06:31:24;18.10;99.90
37410;DHT22;23275;48.914;12.566;2023-09-12T06:33:50;18.30;99.90
37410;DHT22;23275;48.914;12.566;2023-09-12T06:36:15;18.50;99.90
37410;DHT22;23275;48.914;12.566;2023-09-12T06:38:41;18.80;99.90
37410;DHT22;23275;48.914;12.566;2023-09-12T06:41:06;19.00;99.90
37410;DHT22;23275;48.914;12.566;2023-09-12T06:43:32;19.20;99.90
37410;DHT22;23275;48.914;12.566;2023-09-12T06:45:57;19.40;99.90
37410;DHT22;23275;48.914;12.566;2023-09-12T06:48:23;19.50;99.90
37410;DHT22;23275;48.914;12.566;2023-09-12T06:50:48;19.60;99.90
37410;DHT22;23275;48.914;12.566;2023-09-12T06:53:15;19.70;99.90
37410;DHT22;23275;48.914;12.566;2023-09-12T06:55:41;19.80;99.90
37410;DHT22;23275;48.914;12.566;2023-09-12T06:58:06;19.90;99.90
37410;DHT22;23275;48.914;12.566;2023-09-12T07:00:33;19.90;99.90
37410;DHT22;23275;48.914;12.566;2023-09-12T07:02:58;20.10;99.90
37410;DHT22;23275;48.914;12.566;2023-09-12T07:05:24;20.30;99.90
37410;DHT22;23275;48.914;12.566;2023-09-12T07:07:50;20.40;99.90
37410;DHT22;23275;48.914;12.566;2023-09-12T07:10:16;20.60;99.90
37410;DHT22;23275;48.914;12.566;2023-09-12T07:12:41;20.90;99.90
37410;DHT22;23275;48.914;12.566;2023-09-12T07:15:07;21.30;99.90
37410;DHT22;23275;48.914;12.566;2023-09-12T07:17:33;21.80;99.90
37410;DHT22;23275;48.914;12.566;2023-09-12T07:19:58;21.80;99.90
37410;DHT22;23275;48.914;12.566;2023-09-12T07:22:24;21.90;99.90
37410;DHT22;23275;48.914;12.566;2023-09-12T07:24:49;21.90;99.90
37410;DHT22;23275;48.914;12.566;2023-09-12T07:27:15;22.00;99.90
37410;DHT22;23275;48.914;12.566;2023-09-12T07:29:40;22.20;99.90
37410;DHT22;23275;48.914;12.566;2023-09-12T07:32:06;22.30;99.90
37410;DHT22;23275;48.914;12.566;2023-09-12T07:34:31;22.40;99.90
37410;DHT22;23275;48.914;12.566;2023-09-12T07:36:58;22.50;99.90
37410;DHT22;23275;48.914;12.566;2023-09-12T07:39:24;22.70;99.90
37410;DHT22;23275;48.914;12.566;2023-09-12T07:41:49;23.00;99.90
37410;DHT22;23275;48.914;12.566;2023-09-12T07:44:15;23.10;99.90
37410;DHT22;23275;48.914;12.566;2023-09-12T07:46:42;23.30;99.90
37410;DHT22;23275;48.914;12.566;2023-09-12T07:49:08;23.40;99.90
37410;DHT22;23275;48.914;12.566;2023-09-12T07:51:35;23.50;99.90
37410;DHT22;23275;48.914;12.566;2023-09-12T07:54:01;23.70;99.90
37410;DHT22;23275;48.914;12.566;2023-09-12T07:56:26;23.80;99.90
37410;DHT22;23275;48.914;12.566;2023-09-12T07:58:52;23.90;99.90
37410;DHT22;23275;48.914;12.566;2023-09-12T08:01:19;24.00;99.90
37410;DHT22;23275;48.914;12.566;2023-09-12T08:03:45;24.20;99.90
37410;DHT22;23275;48.914;12.566;2023-09-12T08:06:10;24.30;99.90
37410;DHT22;23275;48.914;12.566;2023-09-12T08:08:42;24.50;99.90
37410;DHT22;23275;48.914;12.566;2023-09-12T08:11:08;24.70;99.90
37410;DHT22;23275;48.914;12.566;2023-09-12T08:13:34;24.90;99.90
37410;DHT22;23275;48.914;12.566;2023-09-12T08:16:00;25.10;99.90
37410;DHT22;23275;48.914;12.566;2023-09-12T08:18:29;25.20;99.90
37410;DHT22;23275;48.914;12.566;2023-09-12T08:20:58;25.40;99.90
37410;DHT22;23275;48.914;12.566;2023-09-12T08:23:24;25.70;99.90
37410;DHT22;23275;48.914;12.566;2023-09-12T08:25:53;25.80;99.90
37410;DHT22;23275;48.914;12.566;2023-09-12T08:28:19;26.10;99.90
37410;DHT22;23275;48.914;12.566;2023-09-12T08:30:45;26.20;99.90
37410;DHT22;23275;48.914;12.566;2023-09-12T08:33:14;26.30;99.90
37410;DHT22;23275;48.914;12.566;2023-09-12T08:35:39;26.30;99.90
37410;DHT22;23275;48.914;12.566;2023-09-12T08:38:05;26.40;99.90
37410;DHT22;23275;48.914;12.566;2023-09-12T08:40:32;26.70;99.90
37410;DHT22;23275;48.914;12.566;2023-09-12T08:42:58;27.10;99.90
37410;DHT22;23275;48.914;12.566;2023-09-12T08:45:24;27.70;99.90
37410;DHT22;23275;48.914;12.566;2023-09-12T08:47:52;27.70;99.90
37410;DHT22;23275;48.914;12.566;2023-09-12T08:50:18;27.80;99.90
37410;DHT22;23275;48.914;12.566;2023-09-12T08:52:46;28.60;99.90
37410;DHT22;23275;48.914;12.566;2023-09-12T08:55:12;29.90;99.90
37410;DHT22;23275;48.914;12.566;2023-09-12T08:57:40;30.80;99.90
37410;DHT22;23275;48.914;12.566;2023-09-12T09:00:06;33.60;99.90
37410;DHT22;23275;48.914;12.566;2023-09-12T09:02:34;36.30;99.90
37410;DHT22;23275;48.914;12.566;2023-09-12T09:05:02;39.50;92.30
37410;DHT22;23275;48.914;12.566;2023-09-12T09:07:32;40.60;78.10
37410;DHT22;23275;48.914;12.566;2023-09-12T09:09:57;42.00;69.50
37410;DHT22;23275;48.914;12.566;2023-09-12T09:12:23;44.10;60.10
37410;DHT22;23275;48.914;12.566;2023-09-12T09:14:48;44.70;55.40
37410;DHT22;23275;48.914;12.566;2023-09-12T09:17:14;45.80;52.80
37410;DHT22;23275;48.914;12.566;2023-09-12T09:19:42;46.30;50.80
37410;DHT22;23275;48.914;12.566;2023-09-12T09:22:08;47.30;50.90
37410;DHT22;23275;48.914;12.566;2023-09-12T09:24:34;48.20;46.80
37410;DHT22;23275;48.914;12.566;2023-09-12T09:26:59;48.30;47.60
37410;DHT22;23275;48.914;12.566;2023-09-12T09:29:27;48.40;47.50
37410;DHT22;23275;48.914;12.566;2023-09-12T09:32:00;48.40;45.20
37410;DHT22;23275;48.914;12.566;2023-09-12T09:34:30;48.90;46.20
37410;DHT22;23275;48.914;12.566;2023-09-12T09:36:57;49.00;45.30
37410;DHT22;23275;48.914;12.566;2023-09-12T09:39:24;49.40;44.30
37410;DHT22;23275;48.914;12.566;2023-09-12T09:41:55;49.60;43.90
37410;DHT22;23275;48.914;12.566;2023-09-12T09:44:22;49.20;43.30
37410;DHT22;23275;48.914;12.566;2023-09-12T09:46:54;48.60;44.10
37410;DHT22;23275;48.914;12.566;2023-09-12T09:49:21;48.00;44.70
37410;DHT22;23275;48.914;12.566;2023-09-12T09:51:47;48.20;45.80
37410;DHT22;23275;48.914;12.566;2023-09-12T09:54:14;48.40;45.80
37410;DHT22;23275;48.914;12.566;2023-09-12T09:59:18;48.30;44.10
37410;DHT22;23275;48.914;12.566;2023-09-12T10:01:45;48.00;44.30
37410;DHT22;23275;48.914;12.566;2023-09-12T10:04:11;47.70;44.60
37410;DHT22;23275;48.914;12.566;2023-09-12T10:06:38;47.30;45.30
37410;DHT22;23275;48.914;12.566;2023-09-12T10:09:09;47.00;45.40
37410;DHT22;23275;48.914;12.566;2023-09-12T10:11:35;46.90;45.30
37410;DHT22;23275;48.914;12.566;2023-09-12T10:14:03;45.50;46.40
37410;DHT22;23275;48.914;12.566;2023-09-12T10:16:31;44.80;47.10
37410;DHT22;23275;48.914;12.566;2023-09-12T10:24:39;44.30;50.80
37410;DHT22;23275;48.914;12.566;2023-09-12T10:27:06;43.50;48.70
37410;DHT22;23275;48.914;12.566;2023-09-12T10:29:32;43.20;50.50
37410;DHT22;23275;48.914;12.566;2023-09-12T10:31:57;43.50;50.10
37410;DHT22;23275;48.914;12.566;2023-09-12T10:34:25;42.80;49.30
37410;DHT22;23275;48.914;12.566;2023-09-12T10:36:52;42.20;50.60
37410;DHT22;23275;48.914;12.566;2023-09-12T10:39:19;42.10;51.00
37410;DHT22;23275;48.914;12.566;2023-09-12T10:41:46;42.30;50.30
37410;DHT22;23275;48.914;12.566;2023-09-12T10:44:16;42.80;49.50
37410;DHT22;23275;48.914;12.566;2023-09-12T10:46:44;42.80;49.10
37410;DHT22;23275;48.914;12.566;2023-09-12T10:49:11;42.70;50.30
37410;DHT22;23275;48.914;12.566;2023-09-12T10:51:43;42.80;50.20
37410;DHT22;23275;48.914;12.566;2023-09-12T10:54:22;42.90;50.40
37410;DHT22;23275;48.914;12.566;2023-09-12T10:57:02;42.90;50.10
37410;DHT22;23275;48.914;12.566;2023-09-12T10:59:28;42.90;52.00
37410;DHT22;23275;48.914;12.566;2023-09-12T11:02:36;42.30;49.80
37410;DHT22;23275;48.914;12.566;2023-09-12T11:08:01;39.60;53.30
37410;DHT22;23275;48.914;12.566;2023-09-12T11:10:27;38.00;56.60
37410;DHT22;23275;48.914;12.566;2023-09-12T11:12:55;36.60;60.10
37410;DHT22;23275;48.914;12.566;2023-09-12T11:15:24;35.40;60.30
37410;DHT22;23275;48.914;12.566;2023-09-12T11:18:04;34.50;65.50
37410;DHT22;23275;48.914;12.566;2023-09-12T11:20:59;33.70;63.50
37410;DHT22;23275;48.914;12.566;2023-09-12T11:23:25;33.10;65.70
37410;DHT22;23275;48.914;12.566;2023-09-12T11:26:03;32.70;67.00
37410;DHT22;23275;48.914;12.566;2023-09-12T11:28:30;32.40;71.10
37410;DHT22;23275;48.914;12.566;2023-09-12T11:30:57;32.00;73.20
37410;DHT22;23275;48.914;12.566;2023-09-12T11:33:24;31.70;71.40
37410;DHT22;23275;48.914;12.566;2023-09-12T11:35:53;31.30;71.70
37410;DHT22;23275;48.914;12.566;2023-09-12T11:38:27;31.20;74.00
37410;DHT22;23275;48.914;12.566;2023-09-12T11:40:53;30.80;74.20
37410;DHT22;23275;48.914;12.566;2023-09-12T11:43:23;30.70;78.40
37410;DHT22;23275;48.914;12.566;2023-09-12T11:45:50;30.50;81.60
37410;DHT22;23275;48.914;12.566;2023-09-12T11:48:17;30.50;78.70
37410;DHT22;23275;48.914;12.566;2023-09-12T11:50:42;30.60;79.10
37410;DHT22;23275;48.914;12.566;2023-09-12T11:53:14;30.60;81.20
37410;DHT22;23275;48.914;12.566;2023-09-12T11:55:44;30.30;79.10
37410;DHT22;23275;48.914;12.566;2023-09-12T11:58:15;30.30;81.20
37410;DHT22;23275;48.914;12.566;2023-09-12T12:00:52;30.30;78.30
37410;DHT22;23275;48.914;12.566;2023-09-12T12:03:19;30.30;77.60
37410;DHT22;23275;48.914;12.566;2023-09-12T12:05:45;30.30;81.80
37410;DHT22;23275;48.914;12.566;2023-09-12T12:08:11;30.30;82.20
37410;DHT22;23275;48.914;12.566;2023-09-12T12:10:37;30.30;83.50
37410;DHT22;23275;48.914;12.566;2023-09-12T12:13:16;30.20;83.50
37410;DHT22;23275;48.914;12.566;2023-09-12T12:15:42;30.20;87.10
37410;DHT22;23275;48.914;12.566;2023-09-12T12:18:08;30.20;83.20
37410;DHT22;23275;48.914;12.566;2023-09-12T12:20:33;30.20;88.80
37410;DHT22;23275;48.914;12.566;2023-09-12T12:22:59;30.20;80.20
37410;DHT22;23275;48.914;12.566;2023-09-12T12:25:24;30.00;81.20
37410;DHT22;23275;48.914;12.566;2023-09-12T12:27:50;29.80;81.80
37410;DHT22;23275;48.914;12.566;2023-09-12T12:30:18;29.70;82.40
37410;DHT22;23275;48.914;12.566;2023-09-12T12:32:45;29.60;84.10
37410;DHT22;23275;48.914;12.566;2023-09-12T12:35:21;29.50;88.50
37410;DHT22;23275;48.914;12.566;2023-09-12T12:37:50;29.40;85.70
37410;DHT22;23275;48.914;12.566;2023-09-12T12:40:17;29.40;90.60
37410;DHT22;23275;48.914;12.566;2023-09-12T12:42:45;29.50;90.70
37410;DHT22;23275;48.914;12.566;2023-09-12T12:45:17;29.50;91.00
37410;DHT22;23275;48.914;12.566;2023-09-12T12:47:43;29.60;89.60
37410;DHT22;23275;48.914;12.566;2023-09-12T12:50:11;29.70;88.90
37410;DHT22;23275;48.914;12.566;2023-09-12T12:52:38;29.60;88.00
37410;DHT22;23275;48.914;12.566;2023-09-12T12:55:10;29.50;85.00
37410;DHT22;23275;48.914;12.566;2023-09-12T12:57:39;29.40;91.30
37410;DHT22;23275;48.914;12.566;2023-09-12T13:00:14;29.40;91.80
37410;DHT22;23275;48.914;12.566;2023-09-12T13:02:41;29.40;88.40
37410;DHT22;23275;48.914;12.566;2023-09-12T13:07:48;29.20;90.60
37410;DHT22;23275;48.914;12.566;2023-09-12T13:10:14;29.20;90.30
37410;DHT22;23275;48.914;12.566;2023-09-12T13:12:40;29.10;91.20
37410;DHT22;23275;48.914;12.566;2023-09-12T13:15:06;29.10;93.10
37410;DHT22;23275;48.914;12.566;2023-09-12T13:17:31;29.20;92.50
37410;DHT22;23275;48.914;12.566;2023-09-12T13:19:57;29.20;87.40
37410;DHT22;23275;48.914;12.566;2023-09-12T13:22:22;29.30;88.10
37410;DHT22;23275;48.914;12.566;2023-09-12T13:24:48;29.20;92.00
37410;DHT22;23275;48.914;12.566;2023-09-12T13:27:14;29.20;93.50
37410;DHT22;23275;48.914;12.566;2023-09-12T13:29:39;29.20;89.80
37410;DHT22;23275;48.914;12.566;2023-09-12T13:32:05;29.20;89.10
37410;DHT22;23275;48.914;12.566;2023-09-12T13:34:31;29.10;90.30
37410;DHT22;23275;48.914;12.566;2023-09-12T13:36:56;29.00;86.90
37410;DHT22;23275;48.914;12.566;2023-09-12T13:39:24;28.90;90.30
37410;DHT22;23275;48.914;12.566;2023-09-12T13:41:49;28.80;94.80
37410;DHT22;23275;48.914;12.566;2023-09-12T13:44:15;28.70;93.60
37410;DHT22;23275;48.914;12.566;2023-09-12T13:46:41;28.70;94.40
37410;DHT22;23275;48.914;12.566;2023-09-12T13:49:09;28.50;94.50
37410;DHT22;23275;48.914;12.566;2023-09-12T13:51:35;28.50;95.70
37410;DHT22;23275;48.914;12.566;2023-09-12T13:54:01;28.40;92.90
37410;DHT22;23275;48.914;12.566;2023-09-12T13:56:27;28.30;96.20
37410;DHT22;23275;48.914;12.566;2023-09-12T13:58:53;28.20;92.10
37410;DHT22;23275;48.914;12.566;2023-09-12T14:01:19;28.20;92.70
37410;DHT22;23275;48.914;12.566;2023-09-12T14:03:45;28.10;97.10
37410;DHT22;23275;48.914;12.566;2023-09-12T14:06:11;28.10;99.90
37410;DHT22;23275;48.914;12.566;2023-09-12T14:08:36;28.10;99.90
37410;DHT22;23275;48.914;12.566;2023-09-12T14:11:02;28.10;99.90
37410;DHT22;23275;48.914;12.566;2023-09-12T14:13:28;28.10;98.80
37410;DHT22;23275;48.914;12.566;2023-09-12T14:15:53;28.20;96.80
37410;DHT22;23275;48.914;12.566;2023-09-12T14:18:19;28.10;95.20
37410;DHT22;23275;48.914;12.566;2023-09-12T14:20:45;28.20;95.50
37410;DHT22;23275;48.914;12.566;2023-09-12T14:23:12;28.20;97.10
37410;DHT22;23275;48.914;12.566;2023-09-12T14:25:37;28.30;97.00
37410;DHT22;23275;48.914;12.566;2023-09-12T14:28:03;28.20;94.80
37410;DHT22;23275;48.914;12.566;2023-09-12T14:30:30;28.20;95.70
37410;DHT22;23275;48.914;12.566;2023-09-12T14:33:01;28.20;98.50
37410;DHT22;23275;48.914;12.566;2023-09-12T14:35:27;28.30;99.90
37410;DHT22;23275;48.914;12.566;2023-09-12T14:37:52;28.30;99.00
37410;DHT22;23275;48.914;12.566;2023-09-12T14:40:18;28.20;96.60
37410;DHT22;23275;48.914;12.566;2023-09-12T14:42:44;28.20;98.90
37410;DHT22;23275;48.914;12.566;2023-09-12T14:45:09;28.10;96.40
37410;DHT22;23275;48.914;12.566;2023-09-12T14:47:35;28.10;95.50
37410;DHT22;23275;48.914;12.566;2023-09-12T14:50:02;28.10;98.60
37410;DHT22;23275;48.914;12.566;2023-09-12T14:52:28;28.00;97.10
37410;DHT22;23275;48.914;12.566;2023-09-12T14:54:55;27.90;99.90
37410;DHT22;23275;48.914;12.566;2023-09-12T14:57:23;27.80;95.80
37410;DHT22;23275;48.914;12.566;2023-09-12T14:59:50;27.80;98.10
37410;DHT22;23275;48.914;12.566;2023-09-12T15:02:17;27.80;99.90
37410;DHT22;23275;48.914;12.566;2023-09-12T15:04:43;27.60;97.20
37410;DHT22;23275;48.914;12.566;2023-09-12T15:07:08;27.50;97.30
37410;DHT22;23275;48.914;12.566;2023-09-12T15:09:34;27.50;99.90
37410;DHT22;23275;48.914;12.566;2023-09-12T15:11:59;27.40;99.30
37410;DHT22;23275;48.914;12.566;2023-09-12T15:14:25;27.30;99.40
37410;DHT22;23275;48.914;12.566;2023-09-12T15:16:51;27.20;99.90
37410;DHT22;23275;48.914;12.566;2023-09-12T15:19:17;27.10;99.90
37410;DHT22;23275;48.914;12.566;2023-09-12T15:21:42;27.00;99.90
37410;DHT22;23275;48.914;12.566;2023-09-12T15:24:08;27.00;99.90
37410;DHT22;23275;48.914;12.566;2023-09-12T15:26:34;26.90;99.90
37410;DHT22;23275;48.914;12.566;2023-09-12T15:28:59;26.90;99.90
37410;DHT22;23275;48.914;12.566;2023-09-12T15:31:26;26.80;99.90